COOK73 OJAQ-UTAT
Flight info
| Callsign | COOK73 |
|---|---|
| Flight time | N/A |
| Altitude | 33000 |
| Route | TAMIM B411 SOGOL G667 LA V304 IDRIS A480 KELEM B712 ADITU ADI08A |
| Aircraft | C25C/M-SDE2E3FGHRWXY/LB1 |
Departure
| Time | N/A |
|---|---|
| Airport | King Hussein International Airport (OJAQ) |
Arrival
| Time | 2026-04-10 20:05 |
|---|---|
| Airport | Dashoguz International Airport (UTAT) |
| Time | Latitude | Longitude | Altitude | Speed | Heading |
|---|---|---|---|---|---|
| 2026-04-10 18:21 | 34.64305 | 48.72891 | 35150 ft | 448 kts | 75° |
| 2026-04-10 18:21 | 34.65235 | 48.76508 | 35147 ft | 450 kts | 75° |
| 2026-04-10 18:22 | 34.67115 | 48.83799 | 35143 ft | 454 kts | 75° |
| 2026-04-10 18:22 | 34.68998 | 48.91136 | 35142 ft | 456 kts | 75° |
| 2026-04-10 18:23 | 34.70889 | 48.98516 | 35139 ft | 458 kts | 75° |
| 2026-04-10 18:23 | 34.72783 | 49.05931 | 35140 ft | 460 kts | 75° |
| 2026-04-10 18:24 | 34.74678 | 49.13367 | 35143 ft | 461 kts | 75° |
| 2026-04-10 18:24 | 34.76571 | 49.20821 | 35146 ft | 462 kts | 75° |
| 2026-04-10 18:25 | 34.78464 | 49.28298 | 35146 ft | 463 kts | 75° |
| 2026-04-10 18:25 | 34.80343 | 49.35741 | 35148 ft | 463 kts | 75° |
| 2026-04-10 18:26 | 34.82232 | 49.43241 | 35141 ft | 463 kts | 75° |
| 2026-04-10 18:26 | 34.84112 | 49.50732 | 35139 ft | 462 kts | 75° |
| 2026-04-10 18:27 | 34.85982 | 49.58225 | 35136 ft | 462 kts | 76° |
| 2026-04-10 18:27 | 34.87528 | 49.65820 | 35132 ft | 462 kts | 78° |
| 2026-04-10 18:28 | 34.89086 | 49.73400 | 35131 ft | 461 kts | 78° |
| 2026-04-10 18:28 | 34.90620 | 49.80985 | 35124 ft | 461 kts | 78° |
| 2026-04-10 18:29 | 34.92158 | 49.88569 | 35127 ft | 461 kts | 78° |
| 2026-04-10 18:29 | 34.93684 | 49.96151 | 35124 ft | 461 kts | 78° |
| 2026-04-10 18:30 | 34.95200 | 50.03688 | 35121 ft | 461 kts | 78° |
| 2026-04-10 18:30 | 34.96719 | 50.11281 | 35110 ft | 461 kts | 78° |
| 2026-04-10 18:31 | 34.98234 | 50.18872 | 35105 ft | 461 kts | 78° |
| 2026-04-10 18:31 | 34.99748 | 50.26488 | 35093 ft | 462 kts | 78° |
| 2026-04-10 18:32 | 35.01614 | 50.33990 | 35083 ft | 465 kts | 68° |
| 2026-04-10 18:32 | 35.04935 | 50.40738 | 35075 ft | 465 kts | 50° |
| 2026-04-10 18:33 | 35.09336 | 50.46435 | 35078 ft | 464 kts | 44° |
| 2026-04-10 18:33 | 35.13844 | 50.52080 | 35076 ft | 464 kts | 44° |
| 2026-04-10 18:34 | 35.18373 | 50.57716 | 35077 ft | 465 kts | 44° |
| 2026-04-10 18:34 | 35.22896 | 50.63367 | 35075 ft | 464 kts | 44° |
| 2026-04-10 18:35 | 35.27413 | 50.69017 | 35076 ft | 464 kts | 44° |
| 2026-04-10 18:35 | 35.31923 | 50.74666 | 35076 ft | 464 kts | 44° |
| 2026-04-10 18:36 | 35.36430 | 50.80321 | 35075 ft | 464 kts | 44° |
| 2026-04-10 18:36 | 35.40935 | 50.85984 | 35074 ft | 463 kts | 44° |
| 2026-04-10 18:37 | 35.45360 | 50.91729 | 35072 ft | 463 kts | 50° |
| 2026-04-10 18:37 | 35.49403 | 50.97820 | 35069 ft | 463 kts | 50° |
| 2026-04-10 18:38 | 35.53489 | 51.03931 | 35074 ft | 463 kts | 50° |
| 2026-04-10 18:38 | 35.57552 | 51.10055 | 35077 ft | 462 kts | 50° |
| 2026-04-10 18:39 | 35.61621 | 51.16173 | 35078 ft | 461 kts | 50° |
| 2026-04-10 18:39 | 35.65800 | 51.22139 | 35089 ft | 460 kts | 42° |
| 2026-04-10 18:40 | 35.70925 | 51.26773 | 35097 ft | 454 kts | 25° |
| 2026-04-10 18:40 | 35.76745 | 51.29588 | 35108 ft | 446 kts | 9° |
| 2026-04-10 18:41 | 35.82785 | 51.30854 | 35122 ft | 442 kts | 4° |
| 2026-04-10 18:41 | 35.88855 | 51.32025 | 35136 ft | 441 kts | 4° |
| 2026-04-10 18:42 | 35.94930 | 51.33176 | 35142 ft | 442 kts | 4° |
| 2026-04-10 18:42 | 36.01006 | 51.34343 | 35154 ft | 442 kts | 4° |
| 2026-04-10 18:43 | 36.07086 | 51.35486 | 35157 ft | 441 kts | 3° |
| 2026-04-10 18:43 | 36.13162 | 51.36554 | 35152 ft | 440 kts | 4° |
| 2026-04-10 18:44 | 36.19229 | 51.37664 | 35147 ft | 440 kts | 4° |
| 2026-04-10 18:44 | 36.25298 | 51.38757 | 35134 ft | 441 kts | 4° |
| 2026-04-10 18:45 | 36.31358 | 51.39858 | 35119 ft | 439 kts | 4° |
| 2026-04-10 18:45 | 36.37373 | 51.40965 | 35102 ft | 440 kts | 4° |
| 2026-04-10 18:46 | 36.43436 | 51.42119 | 35084 ft | 441 kts | 4° |
| 2026-04-10 18:46 | 36.49515 | 51.43258 | 35063 ft | 443 kts | 4° |
| 2026-04-10 18:47 | 36.55607 | 51.44410 | 35049 ft | 443 kts | 4° |
| 2026-04-10 18:47 | 36.61707 | 51.45563 | 35035 ft | 443 kts | 4° |
| 2026-04-10 18:48 | 36.67765 | 51.47071 | 35023 ft | 448 kts | 13° |
| 2026-04-10 18:48 | 36.73674 | 51.49607 | 35020 ft | 449 kts | 15° |
| 2026-04-10 18:49 | 36.79571 | 51.52142 | 35010 ft | 448 kts | 15° |
| 2026-04-10 18:49 | 36.85468 | 51.54686 | 35006 ft | 448 kts | 15° |
| 2026-04-10 18:50 | 36.91363 | 51.57230 | 35007 ft | 448 kts | 15° |
| 2026-04-10 18:50 | 36.97215 | 51.59761 | 35006 ft | 448 kts | 15° |
| 2026-04-10 18:51 | 37.03098 | 51.62312 | 35007 ft | 448 kts | 15° |
| 2026-04-10 18:51 | 37.08981 | 51.64866 | 35003 ft | 447 kts | 15° |
| 2026-04-10 18:52 | 37.14861 | 51.67422 | 35009 ft | 447 kts | 15° |
| 2026-04-10 18:52 | 37.20737 | 51.69977 | 35008 ft | 447 kts | 14° |
| 2026-04-10 18:53 | 37.26622 | 51.72526 | 35015 ft | 447 kts | 14° |
| 2026-04-10 18:53 | 37.32497 | 51.75083 | 35014 ft | 446 kts | 15° |
| 2026-04-10 18:54 | 37.38363 | 51.77638 | 35014 ft | 446 kts | 15° |
| 2026-04-10 18:54 | 37.44188 | 51.80181 | 35013 ft | 446 kts | 15° |
| 2026-04-10 18:55 | 37.50055 | 51.82745 | 35016 ft | 446 kts | 15° |
| 2026-04-10 18:55 | 37.55922 | 51.85313 | 35016 ft | 446 kts | 14° |
| 2026-04-10 18:56 | 37.61791 | 51.87885 | 35015 ft | 446 kts | 15° |
| 2026-04-10 18:56 | 37.67661 | 51.90464 | 35016 ft | 446 kts | 15° |
| 2026-04-10 18:57 | 37.72532 | 51.92606 | 35016 ft | 446 kts | 15° |
| 2026-04-10 18:57 | 37.78268 | 51.95682 | 35009 ft | 452 kts | 26° |
| 2026-04-10 18:58 | 37.83282 | 52.00532 | 35005 ft | 457 kts | 43° |
| 2026-04-10 18:58 | 37.87573 | 52.06479 | 35012 ft | 457 kts | 46° |
| 2026-04-10 18:59 | 37.91844 | 52.12451 | 35010 ft | 457 kts | 46° |
| 2026-04-10 18:59 | 37.96109 | 52.18435 | 35016 ft | 457 kts | 46° |
| 2026-04-10 19:00 | 38.00368 | 52.24415 | 35020 ft | 457 kts | 46° |
| 2026-04-10 19:00 | 38.04625 | 52.30407 | 35024 ft | 457 kts | 46° |
| 2026-04-10 19:01 | 38.08876 | 52.36401 | 35020 ft | 457 kts | 46° |
| 2026-04-10 19:01 | 38.13097 | 52.42366 | 35017 ft | 457 kts | 46° |
| 2026-04-10 19:02 | 38.17368 | 52.48412 | 35025 ft | 456 kts | 46° |
| 2026-04-10 19:02 | 38.21577 | 52.54379 | 35028 ft | 456 kts | 46° |
| 2026-04-10 19:03 | 38.25807 | 52.60388 | 35025 ft | 456 kts | 46° |
| 2026-04-10 19:03 | 38.30035 | 52.66404 | 35027 ft | 455 kts | 46° |
| 2026-04-10 19:04 | 38.34248 | 52.72415 | 35028 ft | 455 kts | 46° |
| 2026-04-10 19:04 | 38.38462 | 52.78436 | 35030 ft | 454 kts | 46° |
| 2026-04-10 19:05 | 38.42667 | 52.84457 | 35032 ft | 454 kts | 47° |
| 2026-04-10 19:05 | 38.46867 | 52.90480 | 35031 ft | 454 kts | 47° |
| 2026-04-10 19:06 | 38.51029 | 52.96459 | 35032 ft | 454 kts | 46° |
| 2026-04-10 19:06 | 38.55220 | 53.02493 | 35033 ft | 453 kts | 47° |
| 2026-04-10 19:07 | 38.59401 | 53.08524 | 35033 ft | 453 kts | 47° |
| 2026-04-10 19:07 | 38.63576 | 53.14559 | 35036 ft | 453 kts | 47° |
| 2026-04-10 19:08 | 38.67743 | 53.20594 | 35036 ft | 453 kts | 47° |
| 2026-04-10 19:08 | 38.71910 | 53.26637 | 35037 ft | 452 kts | 47° |
| 2026-04-10 19:09 | 38.76070 | 53.32683 | 35038 ft | 452 kts | 47° |
| 2026-04-10 19:09 | 38.80222 | 53.38728 | 35037 ft | 452 kts | 47° |
| 2026-04-10 19:10 | 38.84369 | 53.44781 | 35036 ft | 452 kts | 47° |
| 2026-04-10 19:10 | 38.88509 | 53.50834 | 35038 ft | 451 kts | 47° |
| 2026-04-10 19:11 | 38.92646 | 53.56894 | 35037 ft | 451 kts | 47° |
| 2026-04-10 19:11 | 38.96773 | 53.62949 | 35031 ft | 450 kts | 47° |
| 2026-04-10 19:12 | 39.01021 | 53.68852 | 35032 ft | 449 kts | 45° |
| 2026-04-10 19:12 | 39.05329 | 53.74665 | 35032 ft | 449 kts | 45° |
| 2026-04-10 19:13 | 39.09605 | 53.80455 | 35029 ft | 448 kts | 45° |
| 2026-04-10 19:13 | 39.13901 | 53.86274 | 35030 ft | 448 kts | 45° |
| 2026-04-10 19:14 | 39.18188 | 53.92102 | 35029 ft | 447 kts | 45° |
| 2026-04-10 19:14 | 39.22465 | 53.97919 | 35028 ft | 447 kts | 45° |
| 2026-04-10 19:15 | 39.26734 | 54.03743 | 35035 ft | 446 kts | 45° |
| 2026-04-10 19:15 | 39.31001 | 54.09571 | 35034 ft | 446 kts | 45° |
| 2026-04-10 19:16 | 39.35257 | 54.15396 | 35031 ft | 446 kts | 45° |
| 2026-04-10 19:16 | 39.39513 | 54.21230 | 35036 ft | 446 kts | 45° |
| 2026-04-10 19:17 | 39.45884 | 54.29989 | 35039 ft | 445 kts | 45° |
| 2026-04-10 19:17 | 39.49941 | 54.36047 | 35040 ft | 446 kts | 53° |
| 2026-04-10 19:18 | 39.53607 | 54.42533 | 35044 ft | 447 kts | 52° |
| 2026-04-10 19:18 | 39.57257 | 54.48997 | 35047 ft | 447 kts | 53° |
| 2026-04-10 19:19 | 39.60922 | 54.55509 | 35047 ft | 447 kts | 53° |
| 2026-04-10 19:19 | 39.64590 | 54.62033 | 35051 ft | 447 kts | 53° |
| 2026-04-10 19:20 | 39.68248 | 54.68559 | 35050 ft | 447 kts | 53° |
| 2026-04-10 19:20 | 39.71903 | 54.75086 | 35049 ft | 447 kts | 53° |
| 2026-04-10 19:21 | 39.75554 | 54.81622 | 35053 ft | 447 kts | 53° |
| 2026-04-10 19:21 | 39.79199 | 54.88163 | 35051 ft | 447 kts | 53° |
| 2026-04-10 19:22 | 39.82843 | 54.94716 | 35050 ft | 447 kts | 53° |
| 2026-04-10 19:22 | 39.86483 | 55.01274 | 35046 ft | 447 kts | 53° |
| 2026-04-10 19:23 | 39.90119 | 55.07836 | 35050 ft | 447 kts | 53° |
| 2026-04-10 19:23 | 39.93730 | 55.14366 | 35047 ft | 447 kts | 53° |
| 2026-04-10 19:24 | 39.97361 | 55.20948 | 35050 ft | 447 kts | 53° |
| 2026-04-10 19:24 | 40.00989 | 55.27540 | 35051 ft | 447 kts | 53° |
| 2026-04-10 19:25 | 40.04611 | 55.34135 | 35051 ft | 447 kts | 53° |
| 2026-04-10 19:25 | 40.08231 | 55.40739 | 35051 ft | 447 kts | 53° |
| 2026-04-10 19:26 | 40.11846 | 55.47346 | 35052 ft | 447 kts | 53° |
| 2026-04-10 19:26 | 40.15457 | 55.53959 | 35056 ft | 447 kts | 53° |
| 2026-04-10 19:27 | 40.19040 | 55.60537 | 35064 ft | 447 kts | 53° |
| 2026-04-10 19:27 | 40.22639 | 55.67159 | 35062 ft | 447 kts | 53° |
| 2026-04-10 19:28 | 40.26174 | 55.73841 | 35060 ft | 447 kts | 58° |
| 2026-04-10 19:28 | 40.28647 | 55.81316 | 35058 ft | 448 kts | 70° |
| 2026-04-10 19:29 | 40.30821 | 55.88956 | 35065 ft | 447 kts | 69° |
| 2026-04-10 19:29 | 40.32974 | 55.96605 | 35068 ft | 447 kts | 70° |
| 2026-04-10 19:30 | 40.35126 | 56.04254 | 35069 ft | 447 kts | 70° |
| 2026-04-10 19:30 | 40.37269 | 56.11905 | 35073 ft | 447 kts | 70° |
| 2026-04-10 19:31 | 40.39405 | 56.19549 | 35070 ft | 447 kts | 70° |
| 2026-04-10 19:31 | 40.41528 | 56.27165 | 35075 ft | 447 kts | 70° |
| 2026-04-10 19:32 | 40.43656 | 56.34822 | 35074 ft | 446 kts | 70° |
| 2026-04-10 19:32 | 40.45777 | 56.42479 | 35074 ft | 446 kts | 70° |
| 2026-04-10 19:33 | 40.47893 | 56.50148 | 35072 ft | 447 kts | 70° |
| 2026-04-10 19:33 | 40.50009 | 56.57830 | 35068 ft | 447 kts | 70° |
| 2026-04-10 19:34 | 40.52120 | 56.65519 | 35070 ft | 447 kts | 70° |
| 2026-04-10 19:34 | 40.54221 | 56.73206 | 35073 ft | 447 kts | 70° |
| 2026-04-10 19:35 | 40.56317 | 56.80890 | 35073 ft | 447 kts | 70° |
| 2026-04-10 19:35 | 40.58408 | 56.88581 | 35070 ft | 446 kts | 70° |
| 2026-04-10 19:36 | 40.60494 | 56.96273 | 35073 ft | 446 kts | 70° |
| 2026-04-10 19:36 | 40.62559 | 57.03911 | 35075 ft | 446 kts | 70° |
| 2026-04-10 19:37 | 40.64632 | 57.11607 | 35073 ft | 445 kts | 70° |
| 2026-04-10 19:37 | 40.66690 | 57.19296 | 35076 ft | 445 kts | 70° |
| 2026-04-10 19:38 | 40.68739 | 57.26969 | 35074 ft | 444 kts | 70° |
| 2026-04-10 19:38 | 40.70787 | 57.34660 | 35080 ft | 444 kts | 70° |
| 2026-04-10 19:39 | 40.72826 | 57.42341 | 35081 ft | 443 kts | 71° |
| 2026-04-10 19:39 | 40.74859 | 57.50022 | 35082 ft | 443 kts | 71° |
| 2026-04-10 19:40 | 40.76884 | 57.57698 | 35082 ft | 443 kts | 71° |
| 2026-04-10 19:40 | 40.79397 | 57.65088 | 35075 ft | 442 kts | 58° |
| 2026-04-10 19:41 | 40.82938 | 57.71717 | 35079 ft | 441 kts | 53° |
| 2026-04-10 19:41 | 40.86495 | 57.78321 | 35017 ft | 441 kts | 53° |
| 2026-04-10 19:42 | 40.88264 | 57.81594 | 34507 ft | 434 kts | 53° |
| 2026-04-10 19:42 | 40.90008 | 57.84828 | 33918 ft | 430 kts | 54° |
| 2026-04-10 19:42 | 40.91704 | 57.87986 | 33348 ft | 424 kts | 54° |
| 2026-04-10 19:42 | 40.93403 | 57.91143 | 32792 ft | 419 kts | 54° |
| 2026-04-10 19:43 | 40.95077 | 57.94263 | 32242 ft | 414 kts | 54° |
| 2026-04-10 19:43 | 40.96740 | 57.97360 | 31700 ft | 411 kts | 55° |
| 2026-04-10 19:43 | 40.98384 | 58.00427 | 31163 ft | 408 kts | 55° |
| 2026-04-10 19:43 | 41.00019 | 58.03484 | 30628 ft | 405 kts | 55° |
| 2026-04-10 19:44 | 41.01645 | 58.06521 | 30092 ft | 403 kts | 56° |
| 2026-04-10 19:44 | 41.03259 | 58.09545 | 29524 ft | 400 kts | 56° |
| 2026-04-10 19:44 | 41.04861 | 58.12543 | 28996 ft | 397 kts | 56° |
| 2026-04-10 19:44 | 41.06448 | 58.15520 | 28477 ft | 394 kts | 56° |
| 2026-04-10 19:45 | 41.08025 | 58.18482 | 27958 ft | 392 kts | 56° |
| 2026-04-10 19:45 | 41.09592 | 58.21422 | 27462 ft | 389 kts | 56° |
| 2026-04-10 19:45 | 41.10623 | 58.23364 | 27123 ft | 388 kts | 56° |
| 2026-04-10 19:45 | 41.12170 | 58.26272 | 26612 ft | 386 kts | 56° |
| 2026-04-10 19:46 | 41.13716 | 58.29188 | 26098 ft | 385 kts | 56° |
| 2026-04-10 19:46 | 41.15257 | 58.32088 | 25599 ft | 384 kts | 56° |
| 2026-04-10 19:46 | 41.16787 | 58.34981 | 25093 ft | 382 kts | 56° |
| 2026-04-10 19:46 | 41.18317 | 58.37864 | 24588 ft | 381 kts | 56° |
| 2026-04-10 19:47 | 41.19836 | 58.40742 | 24087 ft | 381 kts | 56° |
| 2026-04-10 19:47 | 41.21358 | 58.43620 | 23567 ft | 380 kts | 56° |
| 2026-04-10 19:47 | 41.22874 | 58.46491 | 23033 ft | 378 kts | 56° |
| 2026-04-10 19:47 | 41.24859 | 58.50256 | 22375 ft | 374 kts | 56° |
| 2026-04-10 19:48 | 41.25869 | 58.52172 | 22045 ft | 373 kts | 56° |
| 2026-04-10 19:48 | 41.27350 | 58.54986 | 21555 ft | 371 kts | 56° |
| 2026-04-10 19:48 | 41.28826 | 58.57789 | 21073 ft | 369 kts | 56° |
| 2026-04-10 19:48 | 41.30291 | 58.60582 | 20580 ft | 368 kts | 56° |
| 2026-04-10 19:49 | 41.31756 | 58.63366 | 20086 ft | 366 kts | 56° |
| 2026-04-10 19:49 | 41.33210 | 58.66141 | 19616 ft | 365 kts | 56° |
| 2026-04-10 19:49 | 41.34659 | 58.68903 | 19135 ft | 364 kts | 56° |
| 2026-04-10 19:49 | 41.36101 | 58.71660 | 18660 ft | 362 kts | 56° |
| 2026-04-10 19:50 | 41.37539 | 58.74408 | 18157 ft | 361 kts | 56° |
| 2026-04-10 19:50 | 41.38951 | 58.77109 | 17674 ft | 358 kts | 56° |
| 2026-04-10 19:50 | 41.40367 | 58.79821 | 17204 ft | 355 kts | 56° |
| 2026-04-10 19:50 | 41.41773 | 58.82514 | 16740 ft | 353 kts | 56° |
| 2026-04-10 19:51 | 41.43168 | 58.85192 | 16280 ft | 351 kts | 56° |
| 2026-04-10 19:51 | 41.44558 | 58.87858 | 15814 ft | 350 kts | 56° |
| 2026-04-10 19:51 | 41.45940 | 58.90519 | 15351 ft | 348 kts | 56° |
| 2026-04-10 19:51 | 41.47321 | 58.93168 | 14895 ft | 347 kts | 56° |
| 2026-04-10 19:52 | 41.48712 | 58.95852 | 14436 ft | 347 kts | 56° |
| 2026-04-10 19:52 | 41.50069 | 58.98458 | 13983 ft | 346 kts | 56° |
| 2026-04-10 19:52 | 41.51434 | 59.01099 | 13497 ft | 345 kts | 56° |
| 2026-04-10 19:52 | 41.52798 | 59.03724 | 13041 ft | 343 kts | 56° |
| 2026-04-10 19:53 | 41.54147 | 59.06335 | 12592 ft | 341 kts | 56° |
| 2026-04-10 19:53 | 41.55485 | 59.08915 | 12144 ft | 331 kts | 56° |
| 2026-04-10 19:53 | 41.56769 | 59.11401 | 11716 ft | 319 kts | 56° |
| 2026-04-10 19:53 | 41.58007 | 59.13802 | 11292 ft | 309 kts | 56° |
| 2026-04-10 19:54 | 41.59215 | 59.16138 | 10900 ft | 302 kts | 56° |
| 2026-04-10 19:54 | 41.60400 | 59.18441 | 10405 ft | 300 kts | 57° |
| 2026-04-10 19:54 | 41.61576 | 59.20717 | 9985 ft | 295 kts | 56° |
| 2026-04-10 19:54 | 41.62728 | 59.22963 | 9570 ft | 290 kts | 57° |
| 2026-04-10 19:55 | 41.63866 | 59.25166 | 9193 ft | 286 kts | 57° |
| 2026-04-10 19:55 | 41.64982 | 59.27345 | 8819 ft | 282 kts | 57° |
| 2026-04-10 19:55 | 41.66090 | 59.29495 | 8450 ft | 279 kts | 57° |
| 2026-04-10 19:55 | 41.67184 | 59.31630 | 8087 ft | 277 kts | 57° |
| 2026-04-10 19:56 | 41.68271 | 59.33751 | 7710 ft | 275 kts | 57° |
| 2026-04-10 19:56 | 41.69338 | 59.35825 | 7368 ft | 273 kts | 57° |
| 2026-04-10 19:56 | 41.70421 | 59.37945 | 6998 ft | 269 kts | 57° |
| 2026-04-10 19:56 | 41.71454 | 59.39960 | 6656 ft | 263 kts | 57° |
| 2026-04-10 19:57 | 41.72491 | 59.41986 | 6300 ft | 258 kts | 57° |
| 2026-04-10 19:57 | 41.73493 | 59.43950 | 5955 ft | 253 kts | 57° |
| 2026-04-10 19:57 | 41.74470 | 59.45856 | 5634 ft | 251 kts | 57° |
| 2026-04-10 19:57 | 41.75451 | 59.47781 | 5298 ft | 248 kts | 58° |
| 2026-04-10 19:58 | 41.76104 | 59.49864 | 4960 ft | 242 kts | 85° |
| 2026-04-10 19:58 | 41.76145 | 59.52091 | 4530 ft | 235 kts | 91° |
| 2026-04-10 19:58 | 41.76159 | 59.54220 | 4173 ft | 222 kts | 92° |
| 2026-04-10 19:58 | 41.76147 | 59.56231 | 3870 ft | 210 kts | 92° |
| 2026-04-10 19:59 | 41.76144 | 59.58145 | 3605 ft | 202 kts | 92° |
| 2026-04-10 19:59 | 41.76148 | 59.60020 | 3339 ft | 200 kts | 92° |
| 2026-04-10 19:59 | 41.76153 | 59.61820 | 3090 ft | 186 kts | 92° |
| 2026-04-10 19:59 | 41.76153 | 59.63443 | 2859 ft | 161 kts | 92° |
| 2026-04-10 20:00 | 41.76162 | 59.64720 | 2675 ft | 120 kts | 94° |
| 2026-04-10 20:00 | 41.76160 | 59.65716 | 2485 ft | 97 kts | 94° |
| 2026-04-10 20:00 | 41.76152 | 59.66588 | 2367 ft | 96 kts | 95° |
| 2026-04-10 20:00 | 41.76161 | 59.67500 | 2261 ft | 100 kts | 95° |
| 2026-04-10 20:01 | 41.76152 | 59.68448 | 2140 ft | 102 kts | 95° |
| 2026-04-10 20:01 | 41.76157 | 59.69372 | 2024 ft | 95 kts | 95° |
| 2026-04-10 20:01 | 41.76160 | 59.70238 | 1990 ft | 90 kts | 95° |
| 2026-04-10 20:01 | 41.76152 | 59.71099 | 1827 ft | 95 kts | 93° |
| 2026-04-10 20:02 | 41.76156 | 59.72009 | 1649 ft | 99 kts | 92° |
| 2026-04-10 20:02 | 41.76154 | 59.72941 | 1471 ft | 101 kts | 93° |
| 2026-04-10 20:02 | 41.76160 | 59.73879 | 1315 ft | 102 kts | 95° |
| 2026-04-10 20:02 | 41.76160 | 59.74833 | 1149 ft | 103 kts | 93° |
| 2026-04-10 20:03 | 41.76154 | 59.75795 | 968 ft | 104 kts | 91° |
| 2026-04-10 20:03 | 41.76154 | 59.76757 | 796 ft | 103 kts | 92° |
| 2026-04-10 20:03 | 41.76161 | 59.77717 | 608 ft | 103 kts | 91° |
| 2026-04-10 20:03 | 41.76143 | 59.78646 | 490 ft | 101 kts | 91° |
| 2026-04-10 20:04 | 41.76142 | 59.79578 | 458 ft | 99 kts | 89° |
| 2026-04-10 20:04 | 41.76153 | 59.80504 | 421 ft | 100 kts | 90° |
| 2026-04-10 20:04 | 41.76154 | 59.81438 | 395 ft | 102 kts | 90° |
| 2026-04-10 20:04 | 41.76154 | 59.82397 | 360 ft | 102 kts | 91° |
| 2026-04-10 20:05 | 41.76151 | 59.83314 | 283 ft | 92 kts | 88° |
| 2026-04-10 20:05 | 41.76151 | 59.83928 | 281 ft | 28 kts | 90° |
| 2026-04-10 20:05 | 41.76138 | 59.84031 | 280 ft | 9 kts | 80° |
| 2026-04-10 20:05 | 41.76157 | 59.83993 | 280 ft | 13 kts | 266° |
| 2026-04-10 20:06 | 41.76154 | 59.83860 | 281 ft | 15 kts | 269° |
| 2026-04-10 20:06 | 41.76154 | 59.83749 | 282 ft | 12 kts | 271° |
| 2026-04-10 20:06 | 41.76155 | 59.83631 | 283 ft | 13 kts | 270° |
| 2026-04-10 20:06 | 41.76156 | 59.83511 | 283 ft | 12 kts | 272° |
| 2026-04-10 20:07 | 41.76306 | 59.83470 | 281 ft | 7 kts | 1° |
| 2026-04-10 20:07 | 41.76339 | 59.83439 | 281 ft | 7 kts | 272° |
| 2026-04-10 20:07 | 41.76341 | 59.83377 | 281 ft | 2 kts | 301° |
| 2026-04-10 20:08 | 41.76365 | 59.83364 | 281 ft | 7 kts | 346° |
| 2026-04-10 20:08 | 41.76386 | 59.83328 | 281 ft | 4 kts | 348° |
| 2026-04-10 20:08 | 41.76389 | 59.83328 | 281 ft | 0 kts | 5° |